createdAt,value
2022-10-06T00:02:02.525Z,8.65
2022-10-06T00:05:05.180Z,15.27
2022-10-06T00:08:10.311Z,14.90
2022-10-06T00:11:13.890Z,12.02
2022-10-06T00:14:15.928Z,9.45
2022-10-06T00:17:17.727Z,10.65
2022-10-06T00:20:20.185Z,9.23
2022-10-06T00:23:22.030Z,14.50
2022-10-06T00:26:24.336Z,8.57
2022-10-06T00:29:26.261Z,10.70
2022-10-06T00:32:28.130Z,8.85
2022-10-06T00:35:33.673Z,10.90
2022-10-06T00:38:35.801Z,10.30
2022-10-06T00:41:39.481Z,12.05
2022-10-06T00:44:42.838Z,8.27
2022-10-06T00:50:47.266Z,10.40
2022-10-06T00:53:50.391Z,14.90
2022-10-06T00:56:52.820Z,9.70
2022-10-06T00:59:54.743Z,12.37
2022-10-06T01:03:04.242Z,11.13
2022-10-06T01:06:06.728Z,13.48
2022-10-06T01:09:08.699Z,10.00
2022-10-06T01:12:10.750Z,12.80
2022-10-06T01:15:12.978Z,15.60
2022-10-06T01:18:18.699Z,11.13
2022-10-06T01:21:35.192Z,11.77
2022-10-06T01:24:37.375Z,12.32
2022-10-06T01:27:42.293Z,10.57
2022-10-06T01:30:46.428Z,12.68
2022-10-06T01:33:53.239Z,12.73
2022-10-06T01:36:55.579Z,11.70
2022-10-06T01:39:57.603Z,12.45
2022-10-06T01:42:59.422Z,9.10
2022-10-06T01:46:01.568Z,10.98
2022-10-06T01:49:03.424Z,10.30
2022-10-06T01:52:05.409Z,14.75
2022-10-06T01:55:07.667Z,9.63
2022-10-06T01:58:11.198Z,7.95
2022-10-06T02:01:13.272Z,11.85
2022-10-06T02:04:15.255Z,8.20
2022-10-06T02:07:17.260Z,56.10
2022-10-06T02:10:19.511Z,25.40
2022-10-06T02:13:25.305Z,26.98
2022-10-06T02:16:28.341Z,36.28
2022-10-06T02:19:30.252Z,24.42
2022-10-06T02:22:32.309Z,18.08
2022-10-06T02:25:34.296Z,12.25
2022-10-06T02:28:36.254Z,15.55
2022-10-06T02:31:38.201Z,20.55
2022-10-06T02:34:40.141Z,15.05
2022-10-06T02:37:42.184Z,7.20
2022-10-06T02:40:44.477Z,7.75
2022-10-06T02:43:46.567Z,13.07
2022-10-06T02:46:49.230Z,7.65
2022-10-06T02:49:51.300Z,9.90
2022-10-06T02:52:54.172Z,9.13
2022-10-06T02:56:04.634Z,9.52
2022-10-06T02:59:06.531Z,8.27
2022-10-06T03:02:08.705Z,8.75
2022-10-06T03:05:10.647Z,7.45
2022-10-06T03:08:12.592Z,8.82
2022-10-06T03:11:14.932Z,11.15
2022-10-06T03:14:21.561Z,7.30
2022-10-06T03:17:23.894Z,11.70
2022-10-06T03:20:25.704Z,7.97
2022-10-06T03:23:27.643Z,9.25
2022-10-06T03:26:36.349Z,8.40
2022-10-06T03:29:38.216Z,8.80
2022-10-06T03:32:40.032Z,9.88
2022-10-06T03:35:41.905Z,10.73
2022-10-06T03:38:44.059Z,9.68
2022-10-06T03:41:45.988Z,10.70
2022-10-06T03:44:47.866Z,8.20
2022-10-06T03:47:49.781Z,9.40
2022-10-06T03:51:05.041Z,8.43
2022-10-06T03:54:10.672Z,9.23
2022-10-06T03:57:12.653Z,8.32
2022-10-06T04:00:15.019Z,11.77
2022-10-06T04:03:20.284Z,9.40
2022-10-06T04:06:23.136Z,9.65
2022-10-06T04:09:24.962Z,9.32
2022-10-06T04:12:26.842Z,11.82
2022-10-06T04:15:28.672Z,11.68
2022-10-06T04:18:30.778Z,13.13
2022-10-06T04:21:36.735Z,10.87
2022-10-06T04:24:38.597Z,11.27
2022-10-06T04:27:40.435Z,12.25
2022-10-06T04:30:42.311Z,11.07
2022-10-06T04:33:45.809Z,8.60
2022-10-06T04:36:47.713Z,12.00
2022-10-06T04:39:49.568Z,12.45
2022-10-06T04:42:51.517Z,13.82
2022-10-06T04:45:58.569Z,19.35
2022-10-06T04:49:00.847Z,11.27
2022-10-06T04:52:02.709Z,11.57
2022-10-06T04:55:05.149Z,15.32
2022-10-06T04:58:06.980Z,12.60
2022-10-06T05:01:18.124Z,18.20
2022-10-06T05:04:20.100Z,10.95
2022-10-06T05:07:22.034Z,12.13
2022-10-06T05:10:23.888Z,12.73
2022-10-06T05:13:26.829Z,13.65
2022-10-06T05:16:30.884Z,13.23
2022-10-06T05:19:32.802Z,12.18
2022-10-06T05:22:34.613Z,10.18
2022-10-06T05:25:36.571Z,7.97
2022-10-06T05:28:38.783Z,16.23
2022-10-06T05:31:43.181Z,11.05
2022-10-06T05:34:45.270Z,8.35
2022-10-06T05:37:47.122Z,7.53
2022-10-06T05:40:49.616Z,11.00
2022-10-06T05:43:52.996Z,11.73
2022-10-06T05:49:56.780Z,21.13
2022-10-06T05:52:58.629Z,9.68
2022-10-06T05:56:24.704Z,11.40
2022-10-06T05:59:27.105Z,10.00
2022-10-06T06:02:30.472Z,9.93
2022-10-06T06:08:34.073Z,7.88
2022-10-06T06:11:37.735Z,9.18
2022-10-06T06:14:57.973Z,8.27
2022-10-06T06:18:01.580Z,10.23
2022-10-06T06:21:06.193Z,8.52
2022-10-06T06:24:08.227Z,7.63
2022-10-06T06:27:10.075Z,8.88
2022-10-06T06:30:12.279Z,6.93
2022-10-06T06:33:14.163Z,7.10
2022-10-06T06:36:21.151Z,8.60
2022-10-06T06:39:23.049Z,13.32
2022-10-06T06:42:26.253Z,10.35
2022-10-06T06:45:28.131Z,9.23
2022-10-06T06:48:30.286Z,9.07
2022-10-06T06:51:37.534Z,9.05
2022-10-06T06:54:40.538Z,10.18
2022-10-06T06:57:42.534Z,9.10
2022-10-06T07:00:44.376Z,11.82
2022-10-06T07:03:59.153Z,10.65
2022-10-06T07:07:01.484Z,7.72
2022-10-06T07:10:03.957Z,12.50
2022-10-06T07:13:06.994Z,12.80
2022-10-06T07:16:32.743Z,12.18
2022-10-06T07:19:40.623Z,9.48
2022-10-06T07:23:00.970Z,7.35
2022-10-06T07:26:02.868Z,9.52
2022-10-06T07:29:04.715Z,10.57
2022-10-06T07:32:06.532Z,11.75
2022-10-06T07:35:08.884Z,11.15
2022-10-06T07:38:10.786Z,11.55
2022-10-06T07:41:20.594Z,9.80
2022-10-06T07:44:23.113Z,10.38
2022-10-06T07:47:24.953Z,7.95
2022-10-06T07:50:27.146Z,7.85
2022-10-06T07:53:29.153Z,4.80
2022-10-06T07:56:31.742Z,10.48
2022-10-06T07:59:34.812Z,6.07
2022-10-06T08:02:36.688Z,5.30
2022-10-06T08:05:39.468Z,12.98
2022-10-06T08:08:42.559Z,7.38
2022-10-06T08:11:45.170Z,5.07
2022-10-06T08:14:47.810Z,4.85
2022-10-06T08:17:49.787Z,5.80
2022-10-06T08:20:51.608Z,9.80
2022-10-06T08:23:54.400Z,5.78
2022-10-06T08:26:56.240Z,6.45
2022-10-06T08:29:58.312Z,4.82
2022-10-06T08:33:00.265Z,5.25
2022-10-06T08:36:04.539Z,6.20
2022-10-06T08:39:07.312Z,8.25
2022-10-06T08:42:18.702Z,6.90
2022-10-06T08:45:24.808Z,7.82
2022-10-06T08:48:28.828Z,8.00
2022-10-06T08:51:38.966Z,8.10
2022-10-06T08:54:51.084Z,7.10
2022-10-06T08:58:17.572Z,5.90
2022-10-06T09:01:23.881Z,9.68
2022-10-06T09:04:31.996Z,11.20
2022-10-06T09:07:52.382Z,9.63
2022-10-06T09:11:06.740Z,6.25
2022-10-06T09:14:33.353Z,6.95
2022-10-06T09:17:43.416Z,7.82
2022-10-06T09:20:53.965Z,10.48
2022-10-06T09:24:03.863Z,6.65
2022-10-06T09:27:33.497Z,3.33
2022-10-06T09:30:36.387Z,8.38
2022-10-06T09:33:40.027Z,7.35
2022-10-06T09:37:04.136Z,10.70
2022-10-06T09:40:38.055Z,3.90
2022-10-06T09:46:43.590Z,8.32
2022-10-06T09:53:10.518Z,5.78
2022-10-06T09:56:21.510Z,9.88
2022-10-06T09:59:39.099Z,5.97
2022-10-06T10:02:42.558Z,6.07
2022-10-06T10:05:50.273Z,5.88
2022-10-06T10:08:52.139Z,7.65
2022-10-06T10:12:25.197Z,7.75
2022-10-06T10:15:27.182Z,6.37
2022-10-06T10:18:31.893Z,5.53
2022-10-06T10:21:35.480Z,6.70
2022-10-06T10:24:50.480Z,5.80
2022-10-06T10:28:04.276Z,9.32
2022-10-06T10:31:14.718Z,4.93
2022-10-06T10:34:42.087Z,5.38
2022-10-06T10:38:18.489Z,5.72
2022-10-06T10:41:28.011Z,7.18
2022-10-06T10:44:35.074Z,5.07
2022-10-06T10:47:39.225Z,8.40
2022-10-06T10:51:07.027Z,4.22
2022-10-06T10:54:18.374Z,7.47
2022-10-06T10:57:28.482Z,7.78
2022-10-06T11:00:35.383Z,5.88
2022-10-06T11:03:37.465Z,5.32
2022-10-06T11:06:48.173Z,3.42
2022-10-06T11:10:03.826Z,5.18
2022-10-06T11:13:25.608Z,6.05
2022-10-06T11:17:01.032Z,5.53
2022-10-06T11:20:11.761Z,7.10
2022-10-06T11:23:37.236Z,5.75
2022-10-06T11:27:05.112Z,5.60
2022-10-06T11:30:15.440Z,7.75
2022-10-06T11:33:25.252Z,6.93
2022-10-06T11:36:47.212Z,5.75
2022-10-06T11:40:03.729Z,7.18
2022-10-06T11:43:09.047Z,5.45
2022-10-06T11:46:13.677Z,6.88
2022-10-06T11:49:31.750Z,7.03
2022-10-06T11:52:33.555Z,12.60
2022-10-06T11:55:35.439Z,5.80
2022-10-06T11:58:52.468Z,6.45
2022-10-06T12:01:56.142Z,6.80
2022-10-06T12:08:54.828Z,10.50
2022-10-06T12:12:00.627Z,5.82
2022-10-06T12:18:47.685Z,7.30
2022-10-06T12:22:22.968Z,4.97
2022-10-06T12:25:46.798Z,7.28
2022-10-06T12:29:19.118Z,5.05
2022-10-06T12:32:48.262Z,3.63
2022-10-06T12:36:22.013Z,8.38
2022-10-06T12:39:24.446Z,4.97
2022-10-06T12:42:31.318Z,6.00
2022-10-06T12:45:33.586Z,5.95
2022-10-06T12:49:09.191Z,7.97
2022-10-06T12:52:38.651Z,4.95
2022-10-06T12:55:52.740Z,4.18
2022-10-06T12:58:55.885Z,5.50
2022-10-06T13:02:04.887Z,7.05
2022-10-06T13:05:16.360Z,5.60
2022-10-06T13:08:37.716Z,3.95
2022-10-06T13:11:40.363Z,5.15
2022-10-06T13:14:43.522Z,5.15
2022-10-06T13:17:50.099Z,5.30
2022-10-06T13:20:54.696Z,5.05
2022-10-06T13:23:57.041Z,3.03
2022-10-06T13:26:58.968Z,2.47
2022-10-06T13:30:38.415Z,4.00
2022-10-06T13:33:43.274Z,4.88
2022-10-06T13:36:52.280Z,4.22
2022-10-06T13:39:54.093Z,2.00
2022-10-06T13:42:56.713Z,9.05
2022-10-06T13:46:00.506Z,5.68
2022-10-06T13:49:13.794Z,5.78
2022-10-06T13:52:43.718Z,6.47
2022-10-06T13:55:49.919Z,8.65
2022-10-06T13:58:51.901Z,9.18
2022-10-06T14:01:54.921Z,5.30
2022-10-06T14:05:27.082Z,5.60
2022-10-06T14:08:29.104Z,4.38
2022-10-06T14:11:31.562Z,4.40
2022-10-06T14:14:33.788Z,8.87
2022-10-06T14:17:35.691Z,19.50
2022-10-06T14:20:49.124Z,12.35
2022-10-06T14:23:55.066Z,13.82
2022-10-06T14:27:02.528Z,10.25
2022-10-06T14:30:05.052Z,5.05
2022-10-06T14:33:06.876Z,7.10
2022-10-06T14:36:16.569Z,10.10
2022-10-06T14:39:18.760Z,7.93
2022-10-06T14:42:24.337Z,13.35
2022-10-06T14:45:26.332Z,10.73
2022-10-06T14:48:28.824Z,11.43
2022-10-06T14:51:32.154Z,7.43
2022-10-06T14:54:36.732Z,5.63
2022-10-06T14:57:38.572Z,8.85
2022-10-06T15:00:42.961Z,13.68
2022-10-06T15:03:51.817Z,10.93
2022-10-06T15:07:12.379Z,6.03
2022-10-06T15:10:14.277Z,11.88
2022-10-06T15:13:16.157Z,9.23
2022-10-06T15:16:18.528Z,12.77
2022-10-06T15:19:20.566Z,9.27
2022-10-06T15:22:22.377Z,13.38
2022-10-06T15:25:42.915Z,14.98
2022-10-06T15:29:03.331Z,20.55
2022-10-06T15:32:06.689Z,28.38
2022-10-06T15:35:09.127Z,157.85
2022-10-06T15:38:11.105Z,100.45
2022-10-06T15:41:13.219Z,55.83
2022-10-06T15:44:15.607Z,51.47
2022-10-06T15:47:17.979Z,56.00
2022-10-06T15:50:20.033Z,63.37
2022-10-06T15:53:22.576Z,82.82
2022-10-06T15:56:27.777Z,83.60
2022-10-06T15:59:31.752Z,111.18
2022-10-06T16:02:35.832Z,118.03
2022-10-06T16:05:49.576Z,52.67
2022-10-06T16:08:51.459Z,37.28
2022-10-06T16:11:54.148Z,47.63
2022-10-06T16:14:56.060Z,50.83
2022-10-06T16:17:57.900Z,56.95
2022-10-06T16:20:59.774Z,49.55
2022-10-06T16:24:01.953Z,84.15
2022-10-06T16:27:04.031Z,87.78
2022-10-06T16:30:06.614Z,70.13
2022-10-06T16:33:08.506Z,50.17
2022-10-06T16:36:10.779Z,52.75
2022-10-06T16:39:18.481Z,47.75
2022-10-06T16:42:20.345Z,49.03
2022-10-06T16:45:22.584Z,54.28
2022-10-06T16:48:32.319Z,42.63
2022-10-06T16:51:38.860Z,29.33
2022-10-06T16:54:40.670Z,51.70
2022-10-06T16:57:42.554Z,49.35
2022-10-06T17:00:44.463Z,37.35
2022-10-06T17:03:46.486Z,25.20
2022-10-06T17:06:54.039Z,16.25
2022-10-06T17:10:19.016Z,15.65
2022-10-06T17:13:17.923Z,16.75
2022-10-06T17:16:25.706Z,15.00
2022-10-06T17:19:30.053Z,17.20
2022-10-06T17:22:31.913Z,13.73
2022-10-06T17:25:34.193Z,18.80
2022-10-06T17:28:39.795Z,14.25
2022-10-06T17:31:43.137Z,16.65
2022-10-06T17:37:50.307Z,15.20
2022-10-06T17:40:52.165Z,11.20
2022-10-06T17:43:54.290Z,11.70
2022-10-06T17:46:59.042Z,10.73
2022-10-06T17:50:00.884Z,16.73
2022-10-06T17:53:02.796Z,11.50
2022-10-06T17:56:10.273Z,13.25
2022-10-06T17:59:16.454Z,36.25
2022-10-06T18:02:18.418Z,19.27
2022-10-06T18:05:20.417Z,59.67
2022-10-06T18:08:25.381Z,32.25
2022-10-06T18:11:58.287Z,9.95
2022-10-06T18:15:00.129Z,8.65
2022-10-06T18:18:02.264Z,15.90
2022-10-06T18:21:04.293Z,13.52
2022-10-06T18:24:18.587Z,15.93
2022-10-06T18:27:24.041Z,16.40
2022-10-06T18:30:29.453Z,7.78
2022-10-06T18:36:53.340Z,16.02
2022-10-06T18:39:57.023Z,12.13
2022-10-06T18:42:59.028Z,10.60
2022-10-06T18:46:24.266Z,12.32
2022-10-06T18:49:26.204Z,13.82
2022-10-06T18:52:28.048Z,12.15
2022-10-06T18:55:30.080Z,15.93
2022-10-06T18:58:31.913Z,26.00
2022-10-06T19:01:33.863Z,10.05
2022-10-06T19:04:35.986Z,14.25
2022-10-06T19:07:38.200Z,11.70
2022-10-06T19:11:00.867Z,10.10
2022-10-06T19:14:02.765Z,12.43
2022-10-06T19:17:09.143Z,9.45
2022-10-06T19:20:11.297Z,12.25
2022-10-06T19:23:15.283Z,14.50
2022-10-06T19:26:19.196Z,13.60
2022-10-06T19:29:23.915Z,12.00
2022-10-06T19:32:28.711Z,13.60
2022-10-06T19:35:30.759Z,13.55
2022-10-06T19:38:36.739Z,13.68
2022-10-06T19:42:02.639Z,15.98
2022-10-06T19:45:06.975Z,11.57
2022-10-06T19:48:13.012Z,12.70
2022-10-06T19:51:17.341Z,10.27
2022-10-06T19:54:19.691Z,9.88
2022-10-06T19:57:21.561Z,11.85
2022-10-06T20:00:23.594Z,11.70
2022-10-06T20:03:25.549Z,12.02
2022-10-06T20:06:27.409Z,10.10
2022-10-06T20:09:31.940Z,12.13
2022-10-06T20:12:35.115Z,10.13
2022-10-06T20:15:37.096Z,9.23
2022-10-06T20:18:41.259Z,13.77
2022-10-06T20:21:44.176Z,10.13
2022-10-06T20:24:47.795Z,16.00
2022-10-06T20:27:50.333Z,13.25
2022-10-06T20:30:52.462Z,8.63
2022-10-06T20:33:58.049Z,14.73
2022-10-06T20:37:02.568Z,12.93
2022-10-06T20:40:29.271Z,11.32
2022-10-06T20:43:31.119Z,12.80
2022-10-06T20:46:34.859Z,11.75
2022-10-06T20:49:37.122Z,14.68
2022-10-06T20:52:39.686Z,10.65
2022-10-06T20:55:51.631Z,12.70
2022-10-06T20:58:54.221Z,19.35
2022-10-06T21:02:05.804Z,26.38
2022-10-06T21:05:09.071Z,15.63
2022-10-06T21:08:11.989Z,11.90
2022-10-06T21:11:18.932Z,15.52
2022-10-06T21:14:20.807Z,16.05
2022-10-06T21:17:22.731Z,11.75
2022-10-06T21:20:24.606Z,17.85
2022-10-06T21:23:28.575Z,13.82
2022-10-06T21:26:31.407Z,13.98
2022-10-06T21:29:33.411Z,12.25
2022-10-06T21:32:35.338Z,23.17
2022-10-06T21:35:37.225Z,15.27
2022-10-06T21:38:40.323Z,22.10
2022-10-06T21:41:42.440Z,21.70
2022-10-06T21:44:44.596Z,21.63
2022-10-06T21:47:46.936Z,20.42
2022-10-06T21:50:55.147Z,21.33
2022-10-06T21:53:59.046Z,17.85
2022-10-06T21:57:01.176Z,17.05
2022-10-06T22:00:04.664Z,17.23
2022-10-06T22:03:06.841Z,18.67
2022-10-06T22:06:09.947Z,15.00
2022-10-06T22:09:15.807Z,28.50
2022-10-06T22:12:17.708Z,23.10
2022-10-06T22:15:19.993Z,20.90
2022-10-06T22:18:21.895Z,18.15
2022-10-06T22:21:29.446Z,23.17
2022-10-06T22:24:31.718Z,16.92
2022-10-06T22:27:34.155Z,15.55
2022-10-06T22:30:36.061Z,18.33
2022-10-06T22:33:39.445Z,14.85
2022-10-06T22:39:43.564Z,14.68
2022-10-06T22:42:45.492Z,15.88
2022-10-06T22:45:47.369Z,17.10
2022-10-06T22:48:49.267Z,21.40
2022-10-06T22:51:51.188Z,26.35
2022-10-06T22:54:53.077Z,30.83
2022-10-06T22:57:54.944Z,32.65
2022-10-06T23:00:56.981Z,34.50
2022-10-06T23:03:59.143Z,32.70
2022-10-06T23:07:01.059Z,23.65
2022-10-06T23:10:02.980Z,22.80
2022-10-06T23:13:04.913Z,23.02
2022-10-06T23:16:09.009Z,19.80
2022-10-06T23:19:11.306Z,21.10
2022-10-06T23:22:13.659Z,18.55
2022-10-06T23:25:15.958Z,20.50
2022-10-06T23:28:17.890Z,22.63
2022-10-06T23:31:20.035Z,20.30
2022-10-06T23:34:22.125Z,17.20
2022-10-06T23:37:24.185Z,22.45
2022-10-06T23:40:26.198Z,25.55
2022-10-06T23:43:28.233Z,19.23
2022-10-06T23:46:30.193Z,31.08
2022-10-06T23:49:33.794Z,25.65
2022-10-06T23:52:35.652Z,28.23
2022-10-06T23:55:37.621Z,27.38
2022-10-06T23:58:39.745Z,25.15
